createdAt,value
2023-11-03T00:01:06.516Z,72.30
2023-11-03T00:03:39.305Z,72.28
2023-11-03T00:06:08.192Z,72.34
2023-11-03T00:08:36.951Z,72.26
2023-11-03T00:11:06.485Z,72.29
2023-11-03T00:13:36.269Z,72.22
2023-11-03T00:16:05.377Z,72.33
2023-11-03T00:18:34.352Z,72.26
2023-11-03T00:21:06.015Z,72.28
2023-11-03T00:23:35.212Z,72.25
2023-11-03T00:26:09.225Z,72.30
2023-11-03T00:28:41.399Z,72.27
2023-11-03T00:31:13.669Z,72.26
2023-11-03T00:33:42.601Z,72.25
2023-11-03T00:36:15.823Z,72.30
2023-11-03T00:39:02.870Z,72.30
2023-11-03T00:41:31.940Z,72.29
2023-11-03T00:44:00.998Z,72.27
2023-11-03T00:46:29.762Z,72.24
2023-11-03T00:48:59.824Z,72.22
2023-11-03T00:51:29.104Z,72.24
2023-11-03T00:53:58.176Z,72.21
2023-11-03T00:56:26.850Z,72.18
2023-11-03T00:58:55.579Z,72.23
2023-11-03T01:01:24.620Z,72.13
2023-11-03T01:03:56.389Z,72.19
2023-11-03T01:06:27.344Z,72.15
2023-11-03T01:08:56.137Z,72.20
2023-11-03T01:11:28.078Z,72.13
2023-11-03T01:13:57.532Z,72.05
2023-11-03T01:16:31.896Z,72.00
2023-11-03T01:19:05.995Z,72.07
2023-11-03T01:21:40.930Z,72.09
2023-11-03T01:24:12.840Z,72.04
2023-11-03T01:26:43.008Z,72.06
2023-11-03T01:29:13.772Z,72.05
2023-11-03T01:31:42.580Z,72.09
2023-11-03T01:34:11.265Z,71.99
2023-11-03T01:36:40.042Z,72.03
2023-11-03T01:39:09.601Z,72.04
2023-11-03T01:41:39.346Z,72.04
2023-11-03T01:44:13.230Z,72.01
2023-11-03T01:46:42.790Z,71.98
2023-11-03T01:49:13.185Z,72.04
2023-11-03T01:51:43.722Z,72.02
2023-11-03T01:54:13.463Z,71.98
2023-11-03T01:56:42.440Z,72.03
2023-11-03T01:59:14.627Z,71.95
2023-11-03T02:01:45.956Z,71.89
2023-11-03T02:04:14.750Z,71.93
2023-11-03T02:06:47.395Z,71.91
2023-11-03T02:09:16.018Z,71.94
2023-11-03T02:11:48.919Z,71.87
2023-11-03T02:14:20.554Z,71.86
2023-11-03T02:16:49.586Z,71.90
2023-11-03T02:19:18.528Z,71.89
2023-11-03T02:21:47.081Z,71.81
2023-11-03T02:24:15.876Z,71.80
2023-11-03T02:26:45.700Z,71.82
2023-11-03T02:29:14.570Z,71.87
2023-11-03T02:31:46.264Z,71.77
2023-11-03T02:34:17.973Z,71.83
2023-11-03T02:36:54.213Z,71.80
2023-11-03T02:39:23.224Z,71.87
2023-11-03T02:41:51.815Z,71.91
2023-11-03T02:44:22.696Z,71.90
2023-11-03T02:46:51.456Z,71.83
2023-11-03T02:49:20.060Z,71.79
2023-11-03T02:51:48.867Z,71.84
2023-11-03T02:54:20.801Z,71.69
2023-11-03T02:57:04.003Z,71.75
2023-11-03T02:59:35.414Z,71.84
2023-11-03T03:02:05.431Z,71.83
2023-11-03T03:04:34.650Z,71.75
2023-11-03T03:07:03.752Z,71.81
2023-11-03T03:09:34.881Z,71.74
2023-11-03T03:12:23.543Z,71.70
2023-11-03T03:14:55.550Z,71.70
2023-11-03T03:17:24.841Z,71.84
2023-11-03T03:19:55.869Z,71.82
2023-11-03T03:22:24.445Z,71.69
2023-11-03T03:24:56.200Z,71.65
2023-11-03T03:27:24.853Z,71.75
2023-11-03T03:29:53.442Z,71.75
2023-11-03T03:32:23.302Z,71.73
2023-11-03T03:34:52.101Z,71.77
2023-11-03T03:37:36.142Z,71.74
2023-11-03T03:40:16.150Z,71.80
2023-11-03T03:42:44.732Z,71.88
2023-11-03T03:45:15.284Z,71.86
2023-11-03T03:47:45.049Z,71.78
2023-11-03T03:50:13.680Z,71.87
2023-11-03T03:52:42.130Z,71.86
2023-11-03T03:55:10.533Z,71.95
2023-11-03T03:57:39.507Z,71.89
2023-11-03T04:00:08.869Z,71.95
2023-11-03T04:02:37.555Z,71.91
2023-11-03T04:05:06.672Z,71.93
2023-11-03T04:07:35.405Z,71.91
2023-11-03T04:10:06.704Z,71.95
2023-11-03T04:12:35.490Z,71.86
2023-11-03T04:15:04.375Z,71.94
2023-11-03T04:17:32.793Z,71.92
2023-11-03T04:20:01.576Z,72.02
2023-11-03T04:22:43.266Z,72.09
2023-11-03T04:25:12.034Z,72.11
2023-11-03T04:27:40.645Z,72.15
2023-11-03T04:30:09.750Z,72.27
2023-11-03T04:32:38.221Z,72.30
2023-11-03T04:35:10.512Z,72.26
2023-11-03T04:37:39.687Z,72.23
2023-11-03T04:40:08.994Z,72.42
2023-11-03T04:42:46.667Z,72.42
2023-11-03T04:45:18.547Z,72.43
2023-11-03T04:47:47.333Z,72.54
2023-11-03T04:50:18.282Z,72.61
2023-11-03T04:52:50.625Z,72.82
2023-11-03T04:55:19.684Z,72.76
2023-11-03T04:57:54.645Z,72.89
2023-11-03T05:00:23.082Z,72.89
2023-11-03T05:03:01.859Z,73.04
2023-11-03T05:05:33.718Z,73.16
2023-11-03T05:08:02.815Z,73.18
2023-11-03T05:10:34.138Z,73.22
2023-11-03T05:13:02.645Z,73.39
2023-11-03T05:15:40.718Z,73.46
2023-11-03T05:18:12.124Z,73.61
2023-11-03T05:20:41.455Z,73.69
2023-11-03T05:23:10.364Z,73.73
2023-11-03T05:25:39.907Z,73.93
2023-11-03T05:28:08.555Z,74.02
2023-11-03T05:30:37.144Z,74.17
2023-11-03T05:33:09.216Z,74.32
2023-11-03T05:35:38.144Z,74.39
2023-11-03T05:38:07.158Z,74.55
2023-11-03T05:40:35.794Z,74.65
2023-11-03T05:43:04.407Z,74.79
2023-11-03T05:45:35.103Z,74.88
2023-11-03T05:48:04.097Z,74.94
2023-11-03T05:50:38.460Z,75.18
2023-11-03T05:53:06.898Z,75.19
2023-11-03T05:55:35.980Z,75.27
2023-11-03T05:58:13.377Z,75.47
2023-11-03T06:00:42.023Z,75.41
2023-11-03T06:03:19.962Z,75.56
2023-11-03T06:05:49.100Z,75.60
2023-11-03T06:08:17.639Z,75.65
2023-11-03T06:10:46.091Z,75.72
2023-11-03T06:13:15.591Z,75.90
2023-11-03T06:15:44.427Z,75.88
2023-11-03T06:18:13.195Z,75.92
2023-11-03T06:20:41.791Z,75.92
2023-11-03T06:23:11.218Z,76.06
2023-11-03T06:25:43.163Z,76.22
2023-11-03T06:28:20.746Z,76.15
2023-11-03T06:30:52.538Z,76.22
2023-11-03T06:33:23.963Z,76.28
2023-11-03T06:35:52.534Z,76.35
2023-11-03T06:38:26.653Z,76.37
2023-11-03T06:41:08.936Z,76.43
2023-11-03T06:43:57.536Z,76.58
2023-11-03T06:46:37.227Z,76.61
2023-11-03T06:49:07.784Z,76.65
2023-11-03T06:51:45.449Z,76.67
2023-11-03T06:54:17.227Z,76.79
2023-11-03T06:56:48.516Z,76.87
2023-11-03T06:59:23.157Z,76.79
2023-11-03T07:02:00.408Z,76.86
2023-11-03T07:04:36.846Z,76.91
2023-11-03T07:07:17.331Z,76.92
2023-11-03T07:09:48.625Z,77.04
2023-11-03T07:12:28.813Z,77.05
2023-11-03T07:14:57.728Z,77.24
2023-11-03T07:17:27.445Z,77.18
2023-11-03T07:19:58.828Z,77.18
2023-11-03T07:22:33.571Z,77.29
2023-11-03T07:25:35.065Z,77.39
2023-11-03T07:28:06.541Z,77.44
2023-11-03T07:30:35.758Z,77.48
2023-11-03T07:33:08.923Z,77.49
2023-11-03T07:35:38.391Z,77.54
2023-11-03T07:38:07.242Z,77.63
2023-11-03T07:40:36.122Z,77.63
2023-11-03T07:43:07.524Z,77.67
2023-11-03T07:45:36.089Z,77.74
2023-11-03T07:48:05.199Z,77.72
2023-11-03T07:50:34.897Z,77.91
2023-11-03T07:53:22.800Z,77.91
2023-11-03T07:55:55.790Z,77.86
2023-11-03T07:58:28.701Z,77.90
2023-11-03T08:00:57.742Z,78.05
2023-11-03T08:03:32.389Z,78.03
2023-11-03T08:06:06.524Z,78.03
2023-11-03T08:08:35.348Z,78.09
2023-11-03T08:11:11.860Z,78.13
2023-11-03T08:13:41.750Z,78.14
2023-11-03T08:16:10.671Z,78.31
2023-11-03T08:18:46.644Z,78.35
2023-11-03T08:21:15.571Z,78.35
2023-11-03T08:23:44.089Z,78.41
2023-11-03T08:26:17.585Z,78.44
2023-11-03T08:28:47.289Z,78.49
2023-11-03T08:31:15.970Z,78.39
2023-11-03T08:33:44.442Z,78.50
2023-11-03T08:36:15.760Z,78.53
2023-11-03T08:38:44.301Z,78.59
2023-11-03T08:41:38.171Z,78.48
2023-11-03T08:44:27.360Z,78.53
2023-11-03T08:46:56.094Z,78.65
2023-11-03T08:49:26.415Z,78.59
2023-11-03T08:51:56.487Z,78.74
2023-11-03T08:54:26.457Z,78.74
2023-11-03T08:56:57.111Z,78.89
2023-11-03T08:59:26.138Z,78.86
2023-11-03T09:01:57.270Z,78.87
2023-11-03T09:04:26.135Z,78.91
2023-11-03T09:06:55.228Z,78.87
2023-11-03T09:09:23.789Z,78.93
2023-11-03T09:11:52.699Z,78.95
2023-11-03T09:14:26.730Z,79.07
2023-11-03T09:16:56.209Z,79.02
2023-11-03T09:19:24.738Z,79.02
2023-11-03T09:21:53.362Z,79.16
2023-11-03T09:24:21.967Z,79.16
2023-11-03T09:26:57.731Z,79.16
2023-11-03T09:29:32.947Z,79.18
2023-11-03T09:32:06.974Z,79.21
2023-11-03T09:34:47.565Z,79.12
2023-11-03T09:37:17.049Z,79.16
2023-11-03T09:39:47.144Z,79.18
2023-11-03T09:42:19.525Z,79.14
2023-11-03T09:44:48.336Z,79.24
2023-11-03T09:47:16.882Z,79.22
2023-11-03T09:49:46.323Z,79.26
2023-11-03T09:52:25.061Z,79.23
2023-11-03T09:54:56.065Z,79.33
2023-11-03T09:57:24.576Z,79.20
2023-11-03T09:59:54.243Z,79.18
2023-11-03T10:02:22.777Z,79.17
2023-11-03T10:04:51.248Z,79.28
2023-11-03T10:07:19.784Z,79.23
2023-11-03T10:09:48.943Z,79.33
2023-11-03T10:12:19.838Z,79.38
2023-11-03T10:14:48.664Z,79.26
2023-11-03T10:17:27.346Z,79.43
2023-11-03T10:19:57.205Z,79.33
2023-11-03T10:22:27.100Z,79.30
2023-11-03T10:24:57.655Z,79.31
2023-11-03T10:27:29.230Z,79.34
2023-11-03T10:30:00.742Z,79.30
2023-11-03T10:32:40.848Z,79.39
2023-11-03T10:35:10.491Z,79.31
2023-11-03T10:37:40.166Z,79.43
2023-11-03T10:40:17.456Z,79.45
2023-11-03T10:42:50.292Z,79.42
2023-11-03T10:45:22.688Z,79.40
2023-11-03T10:48:10.661Z,79.29
2023-11-03T10:50:47.111Z,79.44
2023-11-03T10:53:34.112Z,79.41
2023-11-03T10:56:22.343Z,79.40
2023-11-03T10:58:56.619Z,79.42
2023-11-03T11:01:43.203Z,79.44
2023-11-03T11:04:27.508Z,79.34
2023-11-03T11:07:05.052Z,79.49
2023-11-03T11:09:46.819Z,79.50
2023-11-03T11:12:15.452Z,79.45
2023-11-03T11:14:44.981Z,79.49
2023-11-03T11:17:18.490Z,79.41
2023-11-03T11:19:55.749Z,79.34
2023-11-03T11:22:28.289Z,79.46
2023-11-03T11:25:02.765Z,79.41
2023-11-03T11:27:32.780Z,79.40
2023-11-03T11:30:13.704Z,79.37
2023-11-03T11:32:58.209Z,79.44
2023-11-03T11:35:26.969Z,79.58
2023-11-03T11:37:55.505Z,79.55
2023-11-03T11:40:28.950Z,79.55
2023-11-03T11:43:02.891Z,79.54
2023-11-03T11:45:38.846Z,79.66
2023-11-03T11:48:10.448Z,79.56
2023-11-03T11:50:42.263Z,79.61
2023-11-03T11:53:10.956Z,79.79
2023-11-03T11:55:39.780Z,79.74
2023-11-03T11:58:12.430Z,79.84
2023-11-03T12:00:41.444Z,79.92
2023-11-03T12:03:13.745Z,79.79
2023-11-03T12:05:42.266Z,79.87
2023-11-03T12:08:11.225Z,79.91
2023-11-03T12:10:39.809Z,79.89
2023-11-03T12:13:12.443Z,79.86
2023-11-03T12:15:42.438Z,80.08
2023-11-03T12:18:13.335Z,80.08
2023-11-03T12:20:42.048Z,80.13
2023-11-03T12:23:12.646Z,80.12
2023-11-03T12:25:41.304Z,80.12
2023-11-03T12:28:23.337Z,80.17
2023-11-03T12:30:53.522Z,80.25
2023-11-03T12:33:27.964Z,80.28
2023-11-03T12:35:56.995Z,80.30
2023-11-03T12:38:26.105Z,80.27
2023-11-03T12:41:21.526Z,80.33
2023-11-03T12:43:59.716Z,80.40
2023-11-03T12:46:48.946Z,80.33
2023-11-03T12:49:21.712Z,80.38
2023-11-03T12:51:53.089Z,80.34
2023-11-03T12:54:25.940Z,80.35
2023-11-03T12:56:58.054Z,80.35
2023-11-03T12:59:27.340Z,80.31
2023-11-03T13:02:01.167Z,80.44
2023-11-03T13:04:29.874Z,80.40
2023-11-03T13:06:59.331Z,80.46
2023-11-03T13:09:30.498Z,80.50
2023-11-03T13:12:00.183Z,80.45
2023-11-03T13:14:29.670Z,80.44
2023-11-03T13:17:03.789Z,80.39
2023-11-03T13:19:38.289Z,80.35
2023-11-03T13:22:15.626Z,80.32
2023-11-03T13:24:45.471Z,80.37
2023-11-03T13:27:13.876Z,80.43
2023-11-03T13:29:42.171Z,80.38
2023-11-03T13:32:12.476Z,80.51
2023-11-03T13:34:41.871Z,80.42
2023-11-03T13:37:11.292Z,80.38
2023-11-03T13:39:39.686Z,80.48
2023-11-03T13:42:08.794Z,80.40
2023-11-03T13:44:38.643Z,80.43
2023-11-03T13:47:10.228Z,80.49
2023-11-03T13:49:48.072Z,80.59
2023-11-03T13:52:22.292Z,80.57
2023-11-03T13:54:51.781Z,80.51
2023-11-03T13:57:20.095Z,80.54
2023-11-03T13:59:48.872Z,80.49
2023-11-03T14:02:19.366Z,80.51
2023-11-03T14:04:48.547Z,80.59
2023-11-03T14:07:17.358Z,80.53
2023-11-03T14:09:46.116Z,80.53
2023-11-03T14:12:14.758Z,80.60
2023-11-03T14:14:43.210Z,80.52
2023-11-03T14:17:23.196Z,80.47
2023-11-03T14:20:12.680Z,80.56
2023-11-03T14:22:43.115Z,80.67
2023-11-03T14:25:13.812Z,80.58
2023-11-03T14:27:45.704Z,80.56
2023-11-03T14:30:14.723Z,80.55
2023-11-03T14:32:43.719Z,80.59
2023-11-03T14:35:21.820Z,80.65
2023-11-03T14:37:50.718Z,80.53
2023-11-03T14:40:21.857Z,80.67
2023-11-03T14:42:50.453Z,80.58
2023-11-03T14:45:21.842Z,80.66
2023-11-03T14:47:53.630Z,80.69
2023-11-03T14:50:23.501Z,80.70
2023-11-03T14:52:57.918Z,80.70
2023-11-03T14:55:26.668Z,80.69
2023-11-03T14:57:55.584Z,80.70
2023-11-03T15:00:29.806Z,80.65
2023-11-03T15:03:01.699Z,80.67
2023-11-03T15:05:39.937Z,80.73
2023-11-03T15:08:09.671Z,80.79
2023-11-03T15:10:38.153Z,80.75
2023-11-03T15:13:09.122Z,80.73
2023-11-03T15:15:40.338Z,80.83
2023-11-03T15:18:09.447Z,80.76
2023-11-03T15:20:38.358Z,80.70
2023-11-03T15:23:09.619Z,80.79
2023-11-03T15:25:38.400Z,80.84
2023-11-03T15:28:10.466Z,80.79
2023-11-03T15:30:48.000Z,80.81
2023-11-03T15:33:25.796Z,80.84
2023-11-03T15:35:54.697Z,80.81
2023-11-03T15:38:23.474Z,80.91
2023-11-03T15:40:52.194Z,80.87
2023-11-03T15:43:21.289Z,80.92
2023-11-03T15:45:50.086Z,80.84
2023-11-03T15:48:18.825Z,80.82
2023-11-03T15:50:54.944Z,80.96
2023-11-03T15:53:26.155Z,80.94
2023-11-03T15:55:56.426Z,81.03
2023-11-03T15:58:25.702Z,81.04
2023-11-03T16:00:57.812Z,81.01
2023-11-03T16:03:26.353Z,81.05
2023-11-03T16:05:55.133Z,81.05
2023-11-03T16:08:24.025Z,80.98
2023-11-03T16:10:53.449Z,81.04
2023-11-03T16:13:23.629Z,81.16
2023-11-03T16:15:53.200Z,81.11
2023-11-03T16:18:22.837Z,81.19
2023-11-03T16:20:51.364Z,81.10
2023-11-03T16:23:20.474Z,81.06
2023-11-03T16:25:50.870Z,80.96
2023-11-03T16:28:19.663Z,81.08
2023-11-03T16:30:48.341Z,81.10
2023-11-03T16:33:17.552Z,81.14
2023-11-03T16:35:46.412Z,81.21
2023-11-03T16:38:16.907Z,81.24
2023-11-03T16:40:46.783Z,81.31
2023-11-03T16:43:16.440Z,81.26
2023-11-03T16:45:47.659Z,81.28
2023-11-03T16:48:30.551Z,81.16
2023-11-03T16:50:59.195Z,81.22
2023-11-03T16:53:31.143Z,81.27
2023-11-03T16:56:00.675Z,81.28
2023-11-03T16:58:39.059Z,81.13
2023-11-03T17:01:08.032Z,81.29
2023-11-03T17:03:36.766Z,81.36
2023-11-03T17:06:08.374Z,81.33
2023-11-03T17:08:38.263Z,81.31
2023-11-03T17:11:09.021Z,81.39
2023-11-03T17:13:38.785Z,81.46
2023-11-03T17:16:36.869Z,81.44
2023-11-03T17:19:07.804Z,81.55
2023-11-03T17:21:36.839Z,81.45
2023-11-03T17:24:06.640Z,81.58
2023-11-03T17:26:35.957Z,81.67
2023-11-03T17:29:07.221Z,81.62
2023-11-03T17:31:36.397Z,81.45
2023-11-03T17:34:25.329Z,81.53
2023-11-03T17:36:56.909Z,81.47
2023-11-03T17:39:28.961Z,81.50
2023-11-03T17:41:58.276Z,81.58
2023-11-03T17:44:27.767Z,81.52
2023-11-03T17:46:56.943Z,81.51
2023-11-03T17:49:30.287Z,81.61
2023-11-03T17:52:02.451Z,81.61
2023-11-03T17:54:31.383Z,81.49
2023-11-03T17:57:00.998Z,81.51
2023-11-03T17:59:34.763Z,81.51
2023-11-03T18:02:03.582Z,81.42
2023-11-03T18:04:35.227Z,81.47
2023-11-03T18:07:11.084Z,81.42
2023-11-03T18:09:39.673Z,81.51
2023-11-03T18:12:16.654Z,81.60
2023-11-03T18:14:48.243Z,81.55
2023-11-03T18:17:17.885Z,81.53
2023-11-03T18:19:51.326Z,81.56
2023-11-03T18:22:20.354Z,81.55
2023-11-03T18:24:55.785Z,81.67
2023-11-03T18:27:51.861Z,81.59
2023-11-03T18:30:29.294Z,81.60
2023-11-03T18:32:59.631Z,81.60
2023-11-03T18:35:28.582Z,81.63
2023-11-03T18:37:57.258Z,81.75
2023-11-03T18:40:33.058Z,81.62
2023-11-03T18:43:04.638Z,81.56
2023-11-03T18:45:35.682Z,81.65
2023-11-03T18:59:21.514Z,81.49
2023-11-03T19:08:44.752Z,81.61
2023-11-03T19:11:13.497Z,81.57
2023-11-03T19:13:45.510Z,81.64
2023-11-03T19:16:16.989Z,81.65
2023-11-03T19:18:48.767Z,81.53
2023-11-03T19:21:17.475Z,81.58
2023-11-03T19:23:49.152Z,81.55
2023-11-03T19:26:20.354Z,81.58
2023-11-03T19:28:51.141Z,81.63
2023-11-03T19:31:21.707Z,81.70
2023-11-03T19:33:50.765Z,81.91
2023-11-03T19:36:21.582Z,81.85
2023-11-03T19:38:53.393Z,81.78
2023-11-03T19:41:21.964Z,81.69
2023-11-03T19:43:54.828Z,81.69
2023-11-03T19:46:29.929Z,81.69
2023-11-03T19:48:58.915Z,81.59
2023-11-03T19:51:27.796Z,81.62
2023-11-03T19:53:56.487Z,81.62
2023-11-03T19:56:28.241Z,81.71
2023-11-03T19:58:57.261Z,81.67
2023-11-03T20:01:25.997Z,81.64
2023-11-03T20:03:57.230Z,81.62
2023-11-03T20:06:31.752Z,81.63
2023-11-03T20:09:01.135Z,81.67
2023-11-03T20:15:30.836Z,81.47
2023-11-03T20:18:03.854Z,81.56
2023-11-03T20:20:36.123Z,81.63
2023-11-03T20:23:05.867Z,81.74
2023-11-03T20:25:34.560Z,81.68
2023-11-03T20:28:28.241Z,81.69
2023-11-03T20:30:59.928Z,81.77
2023-11-03T20:33:30.752Z,81.70
2023-11-03T20:36:01.094Z,81.63
2023-11-03T20:38:32.934Z,81.67
2023-11-03T20:41:01.636Z,81.68
2023-11-03T20:43:30.280Z,81.60
2023-11-03T20:46:03.352Z,81.66
2023-11-03T20:48:36.392Z,81.77
2023-11-03T20:51:09.720Z,81.62
2023-11-03T20:53:43.980Z,81.61
2023-11-03T20:56:14.161Z,81.75
2023-11-03T20:58:48.265Z,81.85
2023-11-03T21:01:23.189Z,81.75
2023-11-03T21:03:52.427Z,81.82
2023-11-03T21:06:25.948Z,81.68
2023-11-03T21:08:57.209Z,81.65
2023-11-03T21:11:26.028Z,81.75
2023-11-03T21:13:55.304Z,81.80
2023-11-03T21:16:24.760Z,81.73
2023-11-03T21:18:56.906Z,81.71
2023-11-03T21:21:28.481Z,81.59
2023-11-03T21:24:00.195Z,81.71
2023-11-03T21:26:50.040Z,81.61
2023-11-03T21:29:26.808Z,81.64
2023-11-03T21:31:55.406Z,81.76
2023-11-03T21:34:27.210Z,81.73
2023-11-03T21:36:55.676Z,81.75
2023-11-03T21:39:25.781Z,81.78
2023-11-03T21:41:57.116Z,81.57
2023-11-03T21:44:30.424Z,81.54
2023-11-03T21:46:59.915Z,81.53
2023-11-03T21:49:28.364Z,81.48
2023-11-03T21:51:57.273Z,81.66
2023-11-03T21:54:25.870Z,81.60
2023-11-03T21:56:55.130Z,81.68
2023-11-03T21:59:23.878Z,81.76
2023-11-03T22:01:52.393Z,81.76
2023-11-03T22:04:22.310Z,81.83
2023-11-03T22:06:51.493Z,81.88
2023-11-03T22:09:20.666Z,81.86
2023-11-03T22:11:49.649Z,81.96
2023-11-03T22:14:18.715Z,82.00
2023-11-03T22:16:47.138Z,81.95
2023-11-03T22:19:19.163Z,82.11
2023-11-03T22:21:53.001Z,82.07
2023-11-03T22:24:21.976Z,82.09
2023-11-03T22:26:54.002Z,82.27
2023-11-03T22:29:23.135Z,82.24
2023-11-03T22:31:54.952Z,82.28
2023-11-03T22:34:24.096Z,82.24
2023-11-03T22:36:52.983Z,82.28
2023-11-03T22:39:23.367Z,82.34
2023-11-03T22:41:52.246Z,82.44
2023-11-03T22:44:24.337Z,82.58
2023-11-03T22:47:04.710Z,82.60
2023-11-03T22:49:43.230Z,82.70
2023-11-03T22:52:12.859Z,82.60
2023-11-03T22:54:49.825Z,82.68
2023-11-03T22:57:20.243Z,82.68
2023-11-03T22:59:49.337Z,82.58
2023-11-03T23:02:23.695Z,82.64
2023-11-03T23:04:53.128Z,82.65
2023-11-03T23:07:21.646Z,82.71
2023-11-03T23:09:59.362Z,82.57
2023-11-03T23:12:40.669Z,82.68
2023-11-03T23:15:12.700Z,82.73
2023-11-03T23:17:41.387Z,82.69
2023-11-03T23:20:28.605Z,82.77
2023-11-03T23:22:57.143Z,82.81
2023-11-03T23:25:25.992Z,82.89
2023-11-03T23:27:54.802Z,82.88
2023-11-03T23:30:23.413Z,82.92
2023-11-03T23:32:52.138Z,83.11
2023-11-03T23:35:21.228Z,82.99
2023-11-03T23:37:49.909Z,82.96
2023-11-03T23:40:18.889Z,82.93
2023-11-03T23:42:47.936Z,83.09
2023-11-03T23:45:16.601Z,83.05
2023-11-03T23:47:44.979Z,82.96
2023-11-03T23:50:16.532Z,83.01
2023-11-03T23:52:44.950Z,82.93
2023-11-03T23:55:22.345Z,82.93
2023-11-03T23:57:51.216Z,82.88
